createdAt,value
2023-01-30T00:00:44.709Z,60.43
2023-01-30T00:03:47.405Z,60.46
2023-01-30T00:06:49.781Z,60.50
2023-01-30T00:09:52.336Z,60.60
2023-01-30T00:12:54.702Z,60.67
2023-01-30T00:15:57.364Z,60.85
2023-01-30T00:18:59.711Z,61.48
2023-01-30T00:22:02.347Z,62.02
2023-01-30T00:25:05.309Z,62.38
2023-01-30T00:28:08.045Z,62.48
2023-01-30T00:31:10.487Z,63.02
2023-01-30T00:34:13.236Z,63.42
2023-01-30T00:37:15.768Z,64.14
2023-01-30T00:40:18.815Z,64.40
2023-01-30T00:43:40.273Z,64.84
2023-01-30T00:47:01.591Z,64.39
2023-01-30T00:50:04.302Z,64.05
2023-01-30T00:53:07.104Z,64.02
2023-01-30T00:56:09.649Z,64.52
2023-01-30T00:59:12.311Z,64.14
2023-01-30T01:02:14.660Z,63.87
2023-01-30T01:05:17.547Z,63.63
2023-01-30T01:08:20.207Z,63.73
2023-01-30T01:11:25.909Z,63.63
2023-01-30T01:14:29.868Z,63.50
2023-01-30T01:17:32.523Z,63.14
2023-01-30T01:20:34.949Z,63.25
2023-01-30T01:23:39.051Z,63.01
2023-01-30T01:26:42.242Z,62.93
2023-01-30T01:29:46.643Z,62.91
2023-01-30T01:32:49.061Z,62.67
2023-01-30T01:35:55.153Z,62.79
2023-01-30T01:38:58.329Z,62.85
2023-01-30T01:42:00.960Z,62.43
2023-01-30T01:45:10.617Z,62.40
2023-01-30T01:48:19.205Z,62.15
2023-01-30T01:51:27.787Z,62.14
2023-01-30T01:54:39.929Z,62.11
2023-01-30T01:57:54.033Z,61.89
2023-01-30T02:01:00.063Z,61.87
2023-01-30T02:04:06.251Z,61.83
2023-01-30T02:07:09.560Z,61.79
2023-01-30T02:10:18.921Z,61.64
2023-01-30T02:13:23.086Z,61.86
2023-01-30T02:16:25.472Z,61.73
2023-01-30T02:19:49.088Z,62.31
2023-01-30T02:23:14.955Z,62.87
2023-01-30T02:27:08.077Z,63.28
2023-01-30T02:30:36.132Z,63.54
2023-01-30T02:33:50.707Z,64.14
2023-01-30T02:37:32.631Z,64.52
2023-01-30T02:40:48.412Z,65.13
2023-01-30T02:44:32.397Z,65.14
2023-01-30T02:47:45.221Z,65.57
2023-01-30T02:50:57.135Z,66.22
2023-01-30T02:54:00.437Z,65.54
2023-01-30T02:57:02.925Z,65.34
2023-01-30T03:00:07.725Z,65.38
2023-01-30T03:03:11.115Z,64.99
2023-01-30T03:06:40.002Z,64.70
2023-01-30T03:10:07.572Z,64.41
2023-01-30T03:13:16.617Z,64.45
2023-01-30T03:16:26.072Z,64.45
2023-01-30T03:19:31.570Z,64.44
2023-01-30T03:22:35.094Z,64.40
2023-01-30T03:25:40.619Z,64.43
2023-01-30T03:28:43.947Z,63.98
2023-01-30T03:31:46.637Z,64.40
2023-01-30T03:34:49.073Z,64.84
2023-01-30T03:37:52.194Z,65.33
2023-01-30T03:40:54.641Z,65.37
2023-01-30T03:43:57.364Z,66.08
2023-01-30T03:47:00.232Z,66.39
2023-01-30T03:50:03.773Z,66.90
2023-01-30T03:53:06.639Z,66.86
2023-01-30T03:56:09.905Z,67.13
2023-01-30T03:59:12.615Z,67.10
2023-01-30T04:02:19.648Z,67.08
2023-01-30T04:05:23.674Z,66.99
2023-01-30T04:08:27.481Z,67.13
2023-01-30T04:11:30.734Z,67.03
2023-01-30T04:14:33.292Z,66.77
2023-01-30T04:17:39.304Z,67.00
2023-01-30T04:20:43.851Z,67.42
2023-01-30T04:23:47.732Z,67.47
2023-01-30T04:26:50.076Z,68.17
2023-01-30T04:29:52.725Z,68.49
2023-01-30T04:32:55.138Z,69.34
2023-01-30T04:35:59.816Z,69.33
2023-01-30T04:39:02.782Z,69.78
2023-01-30T04:42:05.995Z,70.08
2023-01-30T04:45:10.897Z,70.22
2023-01-30T04:48:14.299Z,70.69
2023-01-30T04:51:17.741Z,70.37
2023-01-30T04:54:20.486Z,70.99
2023-01-30T04:57:22.820Z,70.13
2023-01-30T05:00:26.071Z,70.69
2023-01-30T05:03:29.753Z,70.65
2023-01-30T05:06:33.417Z,71.00
2023-01-30T05:09:35.704Z,71.21
2023-01-30T05:12:38.598Z,71.14
2023-01-30T05:15:41.124Z,70.95
2023-01-30T05:18:43.917Z,70.80
2023-01-30T05:21:46.253Z,71.27
2023-01-30T05:24:48.857Z,71.31
2023-01-30T05:27:51.140Z,71.65
2023-01-30T05:30:53.908Z,71.19
2023-01-30T05:33:56.276Z,71.08
2023-01-30T05:36:58.885Z,70.93
2023-01-30T05:40:01.233Z,70.54
2023-01-30T05:43:03.888Z,70.33
2023-01-30T05:46:07.446Z,70.02
2023-01-30T05:49:10.042Z,70.77
2023-01-30T05:52:12.300Z,70.65
2023-01-30T05:55:15.213Z,70.66
2023-01-30T05:58:17.598Z,70.51
2023-01-30T06:01:21.111Z,70.41
2023-01-30T06:04:23.892Z,70.25
2023-01-30T06:07:26.439Z,70.55
2023-01-30T06:10:29.033Z,70.64
2023-01-30T06:13:31.986Z,70.25
2023-01-30T06:16:34.574Z,70.47
2023-01-30T06:19:36.876Z,70.41
2023-01-30T06:22:39.470Z,70.02
2023-01-30T06:25:48.945Z,69.64
2023-01-30T06:28:51.508Z,69.76
2023-01-30T06:31:53.846Z,70.01
2023-01-30T06:34:56.828Z,70.65
2023-01-30T06:37:59.213Z,70.77
2023-01-30T06:41:02.040Z,70.54
2023-01-30T06:44:04.541Z,70.45
2023-01-30T06:47:07.403Z,70.58
2023-01-30T06:50:10.130Z,70.39
2023-01-30T06:53:12.757Z,70.50
2023-01-30T06:56:15.135Z,70.16
2023-01-30T06:59:17.725Z,69.63
2023-01-30T07:02:20.050Z,70.18
2023-01-30T07:05:22.699Z,70.12
2023-01-30T07:08:25.059Z,70.34
2023-01-30T07:11:28.168Z,69.96
2023-01-30T07:14:30.538Z,69.86
2023-01-30T07:17:33.528Z,69.40
2023-01-30T07:20:36.051Z,68.79
2023-01-30T07:23:38.661Z,68.56
2023-01-30T07:26:41.011Z,68.26
2023-01-30T07:29:43.661Z,67.46
2023-01-30T07:32:54.269Z,67.94
2023-01-30T07:35:56.960Z,68.36
2023-01-30T07:39:01.610Z,69.26
2023-01-30T07:42:04.944Z,69.31
2023-01-30T07:45:07.800Z,69.21
2023-01-30T07:48:15.557Z,69.32
2023-01-30T07:51:17.911Z,69.41
2023-01-30T07:54:20.671Z,69.31
2023-01-30T07:57:23.087Z,69.06
2023-01-30T08:00:25.969Z,68.51
2023-01-30T08:03:28.652Z,68.37
2023-01-30T08:06:31.140Z,68.46
2023-01-30T08:09:33.898Z,68.48
2023-01-30T08:12:36.277Z,68.05
2023-01-30T08:15:38.969Z,67.91
2023-01-30T08:18:41.424Z,67.73
2023-01-30T08:21:43.998Z,67.38
2023-01-30T08:24:46.791Z,67.34
2023-01-30T08:27:49.748Z,66.92
2023-01-30T08:30:53.441Z,66.78
2023-01-30T08:33:56.023Z,66.71
2023-01-30T08:36:58.306Z,66.05
2023-01-30T08:40:03.635Z,66.12
2023-01-30T08:43:06.409Z,65.80
2023-01-30T08:46:09.156Z,65.55
2023-01-30T08:49:11.912Z,65.25
2023-01-30T08:52:14.587Z,65.21
2023-01-30T08:55:18.024Z,65.07
2023-01-30T08:58:22.017Z,65.22
2023-01-30T09:01:24.370Z,65.58
2023-01-30T09:04:30.769Z,66.27
2023-01-30T09:07:33.119Z,66.83
2023-01-30T09:10:36.559Z,67.23
2023-01-30T09:13:43.492Z,67.60
2023-01-30T09:16:48.239Z,67.28
2023-01-30T09:19:50.656Z,67.21
2023-01-30T09:22:53.581Z,67.23
2023-01-30T09:25:56.013Z,67.16
2023-01-30T09:28:58.598Z,67.15
2023-01-30T09:32:01.044Z,67.05
2023-01-30T09:35:04.595Z,67.16
2023-01-30T09:38:06.942Z,67.05
2023-01-30T09:41:28.445Z,67.26
2023-01-30T09:44:58.706Z,67.26
2023-01-30T09:48:04.441Z,67.59
2023-01-30T09:51:51.325Z,67.90
2023-01-30T09:55:02.041Z,68.20
2023-01-30T09:58:04.839Z,67.87
2023-01-30T10:01:15.393Z,68.28
2023-01-30T10:04:36.353Z,68.29
2023-01-30T10:07:52.476Z,68.52
2023-01-30T10:11:33.990Z,68.37
2023-01-30T10:14:46.828Z,68.44
2023-01-30T10:18:08.158Z,68.32
2023-01-30T10:21:21.111Z,68.30
2023-01-30T10:24:40.823Z,67.26
2023-01-30T10:27:52.539Z,67.34
2023-01-30T10:31:10.325Z,66.49
2023-01-30T10:34:37.623Z,66.82
2023-01-30T10:38:01.089Z,66.83
2023-01-30T10:41:36.263Z,66.83
2023-01-30T10:44:44.070Z,66.61
2023-01-30T10:47:47.885Z,66.91
2023-01-30T10:50:56.609Z,66.99
2023-01-30T10:54:13.523Z,67.16
2023-01-30T10:57:23.958Z,67.17
2023-01-30T11:00:37.402Z,67.12
2023-01-30T11:03:55.780Z,67.48
2023-01-30T11:07:01.997Z,67.71
2023-01-30T11:10:15.819Z,67.84
2023-01-30T11:13:30.696Z,67.90
2023-01-30T11:16:43.412Z,67.69
2023-01-30T11:19:53.420Z,68.11
2023-01-30T11:23:08.725Z,67.70
2023-01-30T11:26:19.300Z,67.72
2023-01-30T11:29:33.709Z,67.52
2023-01-30T11:32:37.240Z,67.55
2023-01-30T11:35:42.865Z,67.78
2023-01-30T11:39:23.136Z,67.96
2023-01-30T11:42:31.741Z,67.60
2023-01-30T11:45:38.569Z,66.92
2023-01-30T11:49:46.069Z,66.70
2023-01-30T11:52:38.083Z,67.02
2023-01-30T11:55:43.185Z,67.33
2023-01-30T11:59:00.739Z,67.60
2023-01-30T12:02:40.476Z,67.57
2023-01-30T12:05:46.786Z,67.57
2023-01-30T12:08:53.006Z,67.69
2023-01-30T12:11:55.733Z,67.16
2023-01-30T12:15:22.009Z,67.05
2023-01-30T12:18:38.421Z,67.00
2023-01-30T12:21:57.285Z,67.34
2023-01-30T12:25:03.420Z,67.69
2023-01-30T12:28:35.048Z,67.99
2023-01-30T12:31:46.390Z,68.29
2023-01-30T12:34:50.840Z,68.64
2023-01-30T12:38:20.438Z,68.89
2023-01-30T12:41:57.010Z,69.08
2023-01-30T12:45:34.862Z,69.42
2023-01-30T12:49:10.896Z,70.24
2023-01-30T12:52:33.365Z,70.44
2023-01-30T12:55:55.627Z,70.15
2023-01-30T12:59:13.368Z,70.34
2023-01-30T13:02:27.111Z,70.21
2023-01-30T13:05:41.800Z,70.45
2023-01-30T13:08:58.210Z,70.49
2023-01-30T13:12:26.102Z,70.39
2023-01-30T13:15:59.015Z,70.22
2023-01-30T13:19:06.177Z,70.03
2023-01-30T13:22:27.397Z,70.10
2023-01-30T13:25:38.894Z,70.00
2023-01-30T13:28:50.442Z,69.89
2023-01-30T13:31:58.139Z,69.72
2023-01-30T13:35:04.760Z,69.58
2023-01-30T13:38:10.503Z,69.49
2023-01-30T13:41:15.012Z,69.22
2023-01-30T13:44:23.028Z,68.92
2023-01-30T13:47:31.416Z,68.90
2023-01-30T13:50:59.017Z,68.94
2023-01-30T13:54:04.363Z,68.54
2023-01-30T13:57:22.164Z,68.13
2023-01-30T14:00:33.303Z,68.04
2023-01-30T14:03:36.170Z,68.16
2023-01-30T14:06:39.486Z,67.51
2023-01-30T14:10:02.084Z,66.94
2023-01-30T14:13:06.383Z,66.86
2023-01-30T14:16:09.474Z,66.73
2023-01-30T14:19:24.057Z,66.47
2023-01-30T14:22:31.121Z,66.37
2023-01-30T14:25:43.445Z,66.73
2023-01-30T14:28:47.212Z,66.81
2023-01-30T14:31:51.003Z,66.95
2023-01-30T14:35:02.861Z,67.04
2023-01-30T14:38:14.207Z,67.50
2023-01-30T14:41:26.941Z,67.78
2023-01-30T14:44:55.276Z,67.98
2023-01-30T14:48:33.511Z,68.38
2023-01-30T14:51:49.675Z,69.28
2023-01-30T14:54:52.337Z,69.61
2023-01-30T14:58:01.604Z,69.60
2023-01-30T15:01:04.953Z,70.34
2023-01-30T15:04:12.250Z,71.13
2023-01-30T15:07:20.154Z,71.55
2023-01-30T15:10:56.544Z,71.29
2023-01-30T15:14:11.970Z,71.83
2023-01-30T15:17:37.651Z,71.73
2023-01-30T15:20:52.406Z,71.52
2023-01-30T15:24:18.950Z,71.93
2023-01-30T15:27:31.856Z,71.47
2023-01-30T15:30:47.386Z,71.54
2023-01-30T15:33:52.216Z,71.27
2023-01-30T15:36:54.674Z,71.53
2023-01-30T15:40:20.435Z,71.39
2023-01-30T15:43:29.001Z,71.02
2023-01-30T15:46:43.459Z,71.03
2023-01-30T15:49:57.164Z,71.39
2023-01-30T15:53:00.122Z,71.26
2023-01-30T15:56:07.094Z,71.78
2023-01-30T15:59:34.827Z,73.08
2023-01-30T16:02:37.697Z,73.78
2023-01-30T16:05:48.026Z,74.20
2023-01-30T16:09:20.428Z,74.73
2023-01-30T16:12:28.259Z,75.31
2023-01-30T16:15:30.771Z,75.66
2023-01-30T16:18:49.700Z,76.59
2023-01-30T16:21:55.251Z,77.03
2023-01-30T16:24:57.957Z,76.79
2023-01-30T16:28:00.630Z,76.99
2023-01-30T16:31:06.919Z,77.68
2023-01-30T16:34:30.999Z,78.01
2023-01-30T16:37:33.654Z,78.08
2023-01-30T16:40:46.401Z,77.74
2023-01-30T16:44:08.273Z,78.08
2023-01-30T16:47:22.401Z,78.41
2023-01-30T16:50:25.417Z,79.15
2023-01-30T16:53:30.707Z,79.92
2023-01-30T16:56:34.707Z,80.79
2023-01-30T16:59:37.917Z,81.09
2023-01-30T17:02:42.552Z,81.75
2023-01-30T17:05:47.909Z,82.19
2023-01-30T17:08:54.281Z,81.29
2023-01-30T17:11:56.766Z,81.58
2023-01-30T17:15:14.204Z,81.79
2023-01-30T17:18:17.265Z,82.27
2023-01-30T17:21:22.998Z,81.63
2023-01-30T17:24:26.212Z,82.26
2023-01-30T17:27:30.509Z,82.02
2023-01-30T17:30:32.738Z,81.02
2023-01-30T17:33:35.302Z,81.08
2023-01-30T17:36:39.124Z,80.77
2023-01-30T17:39:41.845Z,80.57
2023-01-30T17:42:44.899Z,80.31
2023-01-30T17:45:48.251Z,80.17
2023-01-30T17:48:51.836Z,79.96
2023-01-30T17:51:55.612Z,79.68
2023-01-30T17:54:57.927Z,79.32
2023-01-30T17:58:01.475Z,79.24
2023-01-30T18:01:06.528Z,78.96
2023-01-30T18:04:09.564Z,78.75
2023-01-30T18:07:14.641Z,78.53
2023-01-30T18:10:19.991Z,78.22
2023-01-30T18:13:22.618Z,77.86
2023-01-30T18:16:28.827Z,77.55
2023-01-30T18:19:31.846Z,77.37
2023-01-30T18:22:34.701Z,77.25
2023-01-30T18:25:37.324Z,77.40
2023-01-30T18:28:40.280Z,77.26
2023-01-30T18:31:43.082Z,76.95
2023-01-30T18:34:46.135Z,76.79
2023-01-30T18:37:49.887Z,76.59
2023-01-30T18:40:52.615Z,76.30
2023-01-30T18:43:56.968Z,76.02
2023-01-30T18:46:59.971Z,76.17
2023-01-30T18:50:02.401Z,76.15
2023-01-30T18:53:05.119Z,75.95
2023-01-30T18:56:09.277Z,75.72
2023-01-30T18:59:11.923Z,75.83
2023-01-30T19:02:14.377Z,75.79
2023-01-30T19:05:17.121Z,75.97
2023-01-30T19:08:19.672Z,75.64
2023-01-30T19:11:41.432Z,75.45
2023-01-30T19:14:44.821Z,75.52
2023-01-30T19:17:47.485Z,75.44
2023-01-30T19:20:50.113Z,75.29
2023-01-30T19:23:53.452Z,75.32
2023-01-30T19:26:56.097Z,75.15
2023-01-30T19:29:58.963Z,75.03
2023-01-30T19:33:01.413Z,75.26
2023-01-30T19:36:11.545Z,75.32
2023-01-30T19:39:14.125Z,75.04
2023-01-30T19:42:16.786Z,74.69
2023-01-30T19:45:19.905Z,74.50
2023-01-30T19:48:22.543Z,74.45
2023-01-30T19:51:30.517Z,74.29
2023-01-30T19:54:34.400Z,74.40
2023-01-30T19:57:36.810Z,74.29
2023-01-30T20:00:39.438Z,74.25
2023-01-30T20:03:42.786Z,74.32
2023-01-30T20:06:45.976Z,74.48
2023-01-30T20:09:48.722Z,74.46
2023-01-30T20:12:51.108Z,74.47
2023-01-30T20:15:54.765Z,74.08
2023-01-30T20:18:59.054Z,73.87
2023-01-30T20:22:07.275Z,73.79
2023-01-30T20:25:10.357Z,73.43
2023-01-30T20:28:12.977Z,73.38
2023-01-30T20:31:20.948Z,72.91
2023-01-30T20:34:23.881Z,72.90
2023-01-30T20:37:26.557Z,72.12
2023-01-30T20:40:29.177Z,72.07
2023-01-30T20:43:34.404Z,71.92
2023-01-30T20:46:41.559Z,71.88
2023-01-30T20:49:44.638Z,71.42
2023-01-30T20:52:51.467Z,71.16
2023-01-30T20:55:57.248Z,71.19
2023-01-30T20:59:01.222Z,71.07
2023-01-30T21:02:03.524Z,71.16
2023-01-30T21:05:07.069Z,71.08
2023-01-30T21:08:09.460Z,70.94
2023-01-30T21:11:17.265Z,71.21
2023-01-30T21:14:19.599Z,71.00
2023-01-30T21:17:22.168Z,71.19
2023-01-30T21:20:24.523Z,70.84
2023-01-30T21:23:28.970Z,70.40
2023-01-30T21:26:33.385Z,70.54
2023-01-30T21:29:36.882Z,70.54
2023-01-30T21:32:39.256Z,70.50
2023-01-30T21:35:42.189Z,71.37
2023-01-30T21:39:03.087Z,72.42
2023-01-30T21:42:27.096Z,72.92
2023-01-30T21:45:29.424Z,73.15
2023-01-30T21:48:32.025Z,73.15
2023-01-30T21:51:34.811Z,73.29
2023-01-30T21:54:37.800Z,73.05
2023-01-30T21:57:40.120Z,73.39
2023-01-30T22:00:42.951Z,73.42
2023-01-30T22:03:46.176Z,73.20
2023-01-30T22:06:48.563Z,73.37
2023-01-30T22:09:51.112Z,73.38
2023-01-30T22:12:53.685Z,72.69
2023-01-30T22:16:00.141Z,72.60
2023-01-30T22:19:04.772Z,72.50
2023-01-30T22:22:07.426Z,72.19
2023-01-30T22:25:09.987Z,72.23
2023-01-30T22:28:12.613Z,72.12
2023-01-30T22:31:18.154Z,71.56
2023-01-30T22:34:21.562Z,71.75
2023-01-30T22:37:23.878Z,71.63
2023-01-30T22:40:26.489Z,71.80
2023-01-30T22:43:30.629Z,71.23
2023-01-30T22:46:36.453Z,70.75
2023-01-30T22:49:39.645Z,71.01
2023-01-30T22:52:42.240Z,71.21
2023-01-30T22:55:44.552Z,70.54
2023-01-30T22:58:48.486Z,70.30
2023-01-30T23:01:51.100Z,70.22
2023-01-30T23:04:54.363Z,69.94
2023-01-30T23:07:57.377Z,69.95
2023-01-30T23:11:15.585Z,70.20
2023-01-30T23:14:18.205Z,69.78
2023-01-30T23:17:39.588Z,69.85
2023-01-30T23:20:41.899Z,69.63
2023-01-30T23:23:45.441Z,69.65
2023-01-30T23:26:50.987Z,69.39
2023-01-30T23:29:53.628Z,68.85
2023-01-30T23:32:55.937Z,68.36
2023-01-30T23:36:03.157Z,69.16
2023-01-30T23:39:05.512Z,68.63
2023-01-30T23:42:08.163Z,68.60
2023-01-30T23:45:10.959Z,69.14
2023-01-30T23:48:13.637Z,69.97
2023-01-30T23:51:17.807Z,70.91
2023-01-30T23:54:20.484Z,71.59
2023-01-30T23:57:22.787Z,72.58
